Time;durP1;ratioP1;P1;durP2;ratioP2;P2;SDS_P1;SDS_P2;PMS_P1;PMS_P2;Temp;Humidity;BMP_temperature;BMP_pressure;BME280_temperature;BME280_humidity;BME280_pressure;Samples;Min_cycle;Max_cycle;Signal;HPM_P1;HPM_P2
2022/04/14 00:00:44;;;;;;;15.63;11.13;;;;;;;12.53;73.46;100361.69;5092740;28;20117;-64
2022/04/14 00:03:28;;;;;;;11.63;9.38;;;;;;;12.51;73.60;100360.78;5093382;28;20147;-65
2022/04/14 00:06:12;;;;;;;11.95;9.25;;;;;;;12.52;73.46;100359.94;5093085;28;20567;-64
2022/04/14 00:08:56;;;;;;;12.32;9.80;;;;;;;12.51;73.39;100353.00;5092573;28;20047;-65
2022/04/14 00:11:40;;;;;;;13.75;9.63;;;;;;;12.50;73.36;100352.09;5093867;28;20514;-65
2022/04/14 00:14:24;;;;;;;11.40;9.38;;;;;;;12.51;73.40;100355.59;5097067;28;20521;-65
2022/04/14 00:17:08;;;;;;;11.63;10.40;;;;;;;12.51;73.06;100347.81;5096813;28;20055;-65
2022/04/14 00:19:51;;;;;;;9.82;8.68;;;;;;;12.49;73.47;100353.84;5095919;28;20047;-65
2022/04/14 00:22:36;;;;;;;10.90;9.60;;;;;;;12.49;73.38;100353.84;5095951;28;20131;-65
2022/04/14 00:25:20;;;;;;;;;;;;;;;12.48;73.51;100349.50;5096664;28;20109;-65
2022/04/14 00:28:04;;;;;;;12.48;9.95;;;;;;;12.47;73.33;100349.47;5096775;28;19985;-65
2022/04/14 00:30:48;;;;;;;13.43;9.93;;;;;;;12.48;73.27;100348.63;5096882;28;20047;-65
2022/04/14 00:33:32;;;;;;;13.43;9.73;;;;;;;12.49;73.57;100350.34;5096961;28;20108;-65
2022/04/14 00:36:16;;;;;;;27.33;9.63;;;;;;;12.49;73.41;100345.16;5096377;28;20099;-65
2022/04/14 00:39:00;;;;;;;10.90;9.73;;;;;;;12.47;73.42;100345.16;5096722;28;20098;-64
2022/04/14 00:41:44;;;;;;;11.38;9.70;;;;;;;12.48;73.43;100344.31;5096251;28;20476;-65
2022/04/14 00:44:28;;;;;;;;;;;;;;;12.47;73.55;100345.16;5096551;28;20102;-65
2022/04/14 00:47:13;;;;;;;9.30;8.27;;;;;;;12.45;73.29;100344.25;5095726;28;20413;-64
2022/04/14 00:49:58;;;;;;;10.02;8.75;;;;;;;12.47;73.13;100349.47;5096652;28;20039;-65
2022/04/14 00:52:45;;;;;;;;;;;;;;;12.45;73.27;100354.66;5096795;28;20051;-65
2022/04/14 00:55:29;;;;;;;11.35;8.68;;;;;;;12.46;73.49;100361.59;5095367;28;19969;-64
2022/04/14 00:58:13;;;;;;;12.32;9.20;;;;;;;12.46;73.51;100356.41;5095378;28;20075;-65
2022/04/14 01:00:58;;;;;;;9.18;8.23;;;;;;;12.45;73.52;100354.66;5095204;28;20406;-64
2022/04/14 01:03:42;;;;;;;;;;;;;;;12.44;73.35;100358.09;5096760;28;20101;-65
2022/04/14 01:06:27;;;;;;;9.82;8.63;;;;;;;12.45;73.56;100353.78;5095790;28;19962;-65
2022/04/14 01:09:16;;;;;;;11.07;8.68;;;;;;;12.43;73.55;100358.97;5095962;28;20506;-65
2022/04/14 01:12:01;;;;;;;10.48;9.10;;;;;;;12.45;73.56;100357.25;5095877;28;20096;-64
2022/04/14 01:14:45;;;;;;;;;;;;;;;12.43;73.26;100351.16;5096029;28;20055;-66
2022/04/14 01:17:29;;;;;;;10.05;8.07;;;;;;;12.42;73.33;100352.00;5095393;28;19918;-64
2022/04/14 01:20:13;;;;;;;9.73;7.53;;;;;;;12.43;73.22;100353.75;5095995;28;20411;-66
2022/04/14 01:23:03;;;;;;;11.40;9.00;;;;;;;12.43;73.31;100342.50;5094698;28;20090;-64
2022/04/14 01:25:47;;;;;;;9.25;8.02;;;;;;;12.43;73.61;100334.69;5094445;28;20520;-64
2022/04/14 01:28:31;;;;;;;10.50;9.15;;;;;;;12.41;73.63;100336.41;5094389;28;20058;-64
2022/04/14 01:31:15;;;;;;;9.20;8.20;;;;;;;12.42;73.34;100340.75;5095664;28;20051;-65
2022/04/14 01:33:59;;;;;;;9.75;8.68;;;;;;;12.42;73.37;100346.81;5094191;28;20093;-64
2022/04/14 01:36:43;;;;;;;9.68;8.35;;;;;;;12.42;73.12;100343.34;5095646;28;20047;-64
2022/04/14 01:39:28;;;;;;;10.27;8.25;;;;;;;12.43;73.44;100340.75;5095491;28;20047;-65
2022/04/14 01:42:12;;;;;;;;;;;;;;;12.41;73.38;100345.06;5094950;28;20540;-65
2022/04/14 01:44:56;;;;;;;14.40;10.48;;;;;;;12.42;73.34;100343.34;5095029;28;19938;-65
2022/04/14 01:47:45;;;;;;;10.20;8.65;;;;;;;12.41;73.55;100345.06;5094303;28;20051;-65
2022/04/14 01:50:28;;;;;;;9.98;8.48;;;;;;;12.42;73.40;100340.75;5094928;28;20039;-65
2022/04/14 01:53:13;;;;;;;11.00;8.50;;;;;;;12.42;73.33;100335.56;5095425;28;20042;-65
2022/04/14 01:55:56;;;;;;;8.10;7.30;;;;;;;12.42;73.18;100338.16;5095520;28;20120;-65
2022/04/14 01:58:40;;;;;;;11.80;8.82;;;;;;;12.42;73.30;100340.75;5095338;28;20043;-65
2022/04/14 02:01:24;;;;;;;11.95;8.30;;;;;;;12.42;73.30;100333.81;5093993;28;20097;-64
2022/04/14 02:04:08;;;;;;;11.65;10.07;;;;;;;12.41;73.62;100334.66;5094550;28;20051;-65
2022/04/14 02:06:52;;;;;;;13.65;9.48;;;;;;;12.41;73.32;100339.88;5094566;28;20055;-64
2022/04/14 02:09:36;;;;;;;12.07;8.98;;;;;;;12.41;73.29;100334.66;5094892;28;20047;-65
2022/04/14 02:12:20;;;;;;;;;;;;;;;12.40;73.10;100335.50;5094663;28;20426;-64
2022/04/14 02:15:59;;;;;;;14.80;11.77;;;;;;;12.41;73.54;100333.81;5152280;27;20380;-64
2022/04/14 02:18:43;;;;;;;;;;;;;;;12.40;73.38;100342.47;5137115;27;20120;-64
2022/04/14 02:21:27;;;;;;;17.80;11.30;;;;;;;12.40;73.78;100332.91;5152707;27;20384;-64
2022/04/14 02:24:11;;;;;;;13.43;10.68;;;;;;;12.41;73.41;100333.81;5152560;27;20053;-65
2022/04/14 02:26:55;;;;;;;14.45;11.18;;;;;;;12.39;73.91;100325.97;5152234;27;20521;-65
2022/04/14 02:29:40;;;;;;;;;;;;;;;12.38;73.20;100326.81;5137592;27;20119;-65
2022/04/14 02:32:24;;;;;;;12.88;10.05;;;;;;;12.37;73.53;100319.91;5152382;27;19968;-65
2022/04/14 02:35:08;;;;;;;13.18;10.88;;;;;;;12.37;73.31;100324.22;5152262;27;20092;-64
2022/04/14 02:37:52;;;;;;;12.95;9.85;;;;;;;12.36;73.71;100323.34;5136846;27;20046;-65
2022/04/14 02:40:36;;;;;;;13.65;10.10;;;;;;;12.36;73.28;100325.94;5152282;27;20054;-64
2022/04/14 02:43:21;;;;;;;14.30;11.63;;;;;;;12.37;73.39;100326.81;5151998;27;20050;-65
2022/04/14 02:46:05;;;;;;;16.50;12.70;;;;;;;12.38;73.69;100329.41;5136738;27;20099;-64
2022/04/14 02:48:49;;;;;;;14.75;11.23;;;;;;;12.38;73.35;100332.03;5151725;27;20069;-64
2022/04/14 02:51:33;;;;;;;18.08;13.68;;;;;;;12.38;73.72;100329.41;5151936;27;20100;-65
2022/04/14 02:54:17;;;;;;;16.42;12.30;;;;;;;12.39;73.62;100325.13;5136290;27;20119;-65
2022/04/14 02:57:00;;;;;;;15.52;11.85;;;;;;;12.39;73.79;100322.50;5136740;27;20131;-65
2022/04/14 02:59:44;;;;;;;15.30;11.77;;;;;;;12.38;73.90;100326.81;5151347;27;20042;-64
2022/04/14 03:02:28;;;;;;;16.83;12.60;;;;;;;12.38;73.83;100323.38;5151258;27;20046;-65
2022/04/14 03:05:12;;;;;;;16.88;12.20;;;;;;;12.38;73.51;100332.03;5136154;27;20083;-64
2022/04/14 03:07:56;;;;;;;14.20;12.52;;;;;;;12.37;73.70;100325.09;5135988;27;20049;-65
2022/04/14 03:10:40;;;;;;;18.52;12.90;;;;;;;12.38;73.62;100326.81;5151937;27;20524;-65
2022/04/14 03:13:24;;;;;;;16.10;12.02;;;;;;;12.38;73.66;100320.75;5151865;27;20573;-65
2022/04/14 03:16:08;;;;;;;17.33;13.18;;;;;;;12.36;73.55;100314.66;5151583;27;20129;-65
2022/04/14 03:18:52;;;;;;;14.10;11.73;;;;;;;12.37;73.82;100321.63;5135901;27;20087;-65
2022/04/14 03:21:36;;;;;;;15.82;12.10;;;;;;;12.36;73.59;100323.34;5151226;27;20057;-65
2022/04/14 03:24:20;;;;;;;17.85;12.00;;;;;;;12.34;73.52;100325.91;5151282;27;20173;-65
2022/04/14 03:27:04;;;;;;;16.70;12.45;;;;;;;12.35;73.85;100332.00;5139363;27;20073;-64
2022/04/14 03:29:48;;;;;;;;;;;;;;;12.33;73.65;100325.91;5137600;27;20042;-65
2022/04/14 03:32:33;;;;;;;17.50;13.18;;;;;;;12.33;73.74;100341.50;5137064;27;20379;-66
2022/04/14 03:35:16;;;;;;;;;;;;;;;12.30;73.76;100342.31;5137378;27;20081;-65
2022/04/14 03:38:00;;;;;;;13.60;10.80;;;;;;;12.29;73.83;100352.69;5122051;27;20424;-67
2022/04/14 03:40:44;;;;;;;17.23;11.48;;;;;;;12.29;73.77;100348.38;5122017;27;20050;-65
2022/04/14 03:43:28;;;;;;;17.00;12.30;;;;;;;12.29;73.77;100351.00;5121963;27;20079;-65
2022/04/14 03:46:14;;;;;;;17.48;12.77;;;;;;;12.30;73.92;100346.66;5137387;27;20095;-65
2022/04/14 03:48:58;;;;;;;14.85;11.65;;;;;;;12.30;73.88;100336.25;5121601;27;20047;-64
2022/04/14 03:51:42;;;;;;;17.13;12.88;;;;;;;12.29;73.75;100331.91;5137177;27;20046;-64
2022/04/14 03:54:26;;;;;;;16.13;12.65;;;;;;;12.27;73.65;100337.09;5136889;27;20065;-65
2022/04/14 03:57:11;;;;;;;15.80;12.57;;;;;;;12.29;74.06;100337.09;5121848;27;20041;-65
2022/04/14 03:59:55;;;;;;;15.38;11.75;;;;;;;12.29;73.98;100343.19;5121205;27;20091;-65
2022/04/14 04:02:39;;;;;;;15.40;11.25;;;;;;;12.30;74.08;100351.84;5136409;27;20046;-65
2022/04/14 04:05:23;;;;;;;17.20;12.25;;;;;;;12.29;73.95;100352.69;5121408;27;20106;-64
2022/04/14 04:08:07;;;;;;;15.90;11.35;;;;;;;12.27;73.85;100352.69;5121702;27;20046;-65
2022/04/14 04:10:51;;;;;;;;;;;;;;;12.25;73.74;100358.69;5121123;27;20130;-65
2022/04/14 04:13:35;;;;;;;15.02;12.05;;;;;;;12.25;73.97;100354.38;5136319;27;19918;-65
2022/04/14 04:16:19;;;;;;;16.27;12.45;;;;;;;12.26;74.00;100363.03;5121361;27;20050;-65
2022/04/14 04:19:03;;;;;;;17.38;13.43;;;;;;;12.26;73.99;100365.63;5136231;27;20082;-65
2022/04/14 04:21:47;;;;;;;17.55;13.48;;;;;;;12.26;73.81;100366.53;5136340;27;20120;-65
2022/04/14 04:24:31;;;;;;;16.85;12.80;;;;;;;12.25;74.02;100354.38;5120905;27;20057;-65
2022/04/14 04:27:15;;;;;;;19.88;14.52;;;;;;;12.25;74.19;100358.69;5136408;27;20086;-65
2022/04/14 04:29:59;;;;;;;15.60;13.07;;;;;;;12.24;74.02;100349.16;5121150;27;20081;-65
2022/04/14 04:32:43;;;;;;;17.50;12.63;;;;;;;12.24;73.89;100343.94;5136030;27;20108;-65
2022/04/14 04:35:27;;;;;;;17.50;12.52;;;;;;;12.24;73.85;100343.94;5120471;27;20042;-65
2022/04/14 04:38:10;;;;;;;18.15;12.38;;;;;;;12.23;74.04;100348.28;5119617;27;20054;-64
2022/04/14 04:40:56;;;;;;;17.17;13.02;;;;;;;12.24;74.08;100349.16;5120770;27;20050;-65
2022/04/14 04:43:40;;;;;;;16.63;13.40;;;;;;;12.24;73.85;100346.56;5120809;27;20054;-65
2022/04/14 04:46:24;;;;;;;18.48;12.88;;;;;;;12.23;73.69;100357.78;5136003;27;20089;-65
2022/04/14 04:49:08;;;;;;;16.10;12.80;;;;;;;12.22;73.72;100354.34;5120622;27;20091;-65
2022/04/14 04:51:51;;;;;;;16.58;13.02;;;;;;;12.22;73.99;100359.53;5136014;27;20046;-65
2022/04/14 04:54:35;;;;;;;17.50;12.93;;;;;;;12.22;74.04;100361.28;5119984;27;20466;-65
2022/04/14 04:57:19;;;;;;;17.67;13.23;;;;;;;12.22;74.02;100369.06;5120343;27;20086;-65
2022/04/14 05:00:04;;;;;;;16.65;12.30;;;;;;;12.22;73.88;100361.28;5135466;27;20410;-65
2022/04/14 05:02:48;;;;;;;20.55;13.07;;;;;;;12.22;74.10;100361.28;5135529;27;20038;-64
2022/04/14 05:05:32;;;;;;;15.55;12.88;;;;;;;12.21;74.16;100375.13;5120450;27;20162;-65
2022/04/14 05:08:16;;;;;;;18.90;13.70;;;;;;;12.20;73.91;100368.16;5135399;27;20112;-65
2022/04/14 05:11:00;;;;;;;17.73;12.80;;;;;;;12.20;74.33;100369.03;5135100;27;20099;-64
2022/04/14 05:13:44;;;;;;;17.73;12.50;;;;;;;12.20;74.13;100369.03;5134972;27;20049;-65
2022/04/14 05:16:28;;;;;;;16.05;12.82;;;;;;;12.20;73.75;100370.78;5135559;27;20130;-65
2022/04/14 05:19:12;;;;;;;18.42;13.70;;;;;;;12.18;73.91;100369.03;5135178;27;20143;-64
2022/04/14 05:21:56;;;;;;;18.45;13.32;;;;;;;12.18;73.88;100378.53;5135390;27;20046;-65
2022/04/14 05:24:40;;;;;;;;;;;;;;;12.18;73.83;100383.72;5120034;27;20066;-65
2022/04/14 05:27:24;;;;;;;17.00;13.05;;;;;;;12.15;73.84;100389.75;5135016;27;19918;-65
2022/04/14 05:30:10;;;;;;;17.42;12.80;;;;;;;12.14;74.02;100398.41;5120032;27;20462;-65
2022/04/14 05:32:54;;;;;;;19.38;13.93;;;;;;;12.14;74.00;100393.19;5119319;27;20073;-64
2022/04/14 05:35:39;;;;;;;18.60;13.05;;;;;;;12.15;74.14;100405.34;5119742;27;20092;-64
2022/04/14 05:38:23;;;;;;;18.83;14.38;;;;;;;12.15;73.60;100399.25;5134703;27;20558;-65
2022/04/14 05:41:08;;;;;;;16.75;11.98;;;;;;;12.15;74.01;100401.84;5134798;27;20050;-65
2022/04/14 05:43:52;;;;;;;18.73;12.63;;;;;;;12.15;73.92;100404.44;5135101;27;20050;-64
2022/04/14 05:46:35;;;;;;;15.40;11.80;;;;;;;12.15;74.00;100409.66;5119614;27;20073;-65
2022/04/14 05:49:20;;;;;;;20.77;13.52;;;;;;;12.15;73.78;100417.44;5134458;27;20091;-65
2022/04/14 05:52:05;;;;;;;20.85;14.10;;;;;;;12.12;73.72;100426.06;5134491;27;20045;-65
2022/04/14 05:54:49;;;;;;;22.58;13.98;;;;;;;12.10;74.03;100432.09;5134314;27;20115;-64
2022/04/14 05:57:33;;;;;;;24.10;15.77;;;;;;;12.09;74.01;100436.41;5134978;27;20092;-65
2022/04/14 06:00:16;;;;;;;20.80;14.82;;;;;;;12.08;74.00;100437.25;5134863;27;20573;-64
2022/04/14 06:03:01;;;;;;;23.38;14.48;;;;;;;12.07;73.65;100439.84;5134948;27;20559;-64
2022/04/14 06:05:45;;;;;;;17.90;14.02;;;;;;;12.08;73.87;100447.66;5134765;27;20103;-65
2022/04/14 06:08:29;;;;;;;23.70;16.02;;;;;;;12.07;74.17;100445.03;5134542;27;20043;-64
2022/04/14 06:11:12;;;;;;;22.33;16.05;;;;;;;12.07;73.86;100442.44;5134578;27;20077;-65
2022/04/14 06:13:56;;;;;;;20.52;14.82;;;;;;;12.07;73.71;100450.25;5119227;28;20058;-64
2022/04/14 06:16:41;;;;;;;28.45;18.25;;;;;;;12.05;74.07;100445.03;5119294;28;20104;-64
2022/04/14 06:19:25;;;;;;;31.25;20.85;;;;;;;12.05;74.07;100450.22;5118982;27;20092;-64
2022/04/14 06:22:08;;;;;;;20.17;14.55;;;;;;;12.07;73.83;100445.03;5133979;28;20042;-65
2022/04/14 06:24:52;;;;;;;36.05;21.20;;;;;;;12.05;73.67;100441.53;5118761;28;20068;-64
2022/04/14 06:27:36;;;;;;;25.23;18.23;;;;;;;12.05;73.94;100452.81;5134146;28;20046;-64
2022/04/14 06:30:20;;;;;;;29.45;18.20;;;;;;;12.04;74.21;100445.88;5119135;28;20220;-65
2022/04/14 06:33:04;;;;;;;29.23;17.92;;;;;;;12.04;73.90;100438.09;5119109;28;20172;-65
2022/04/14 06:35:48;;;;;;;;;;;;;;;12.03;74.07;100450.19;5134583;27;20547;-65
2022/04/14 06:38:32;;;;;;;33.25;19.15;;;;;;;12.02;73.91;100453.63;5134452;28;19960;-64
2022/04/14 06:41:16;;;;;;;25.10;17.17;;;;;;;12.03;74.40;100452.78;5118738;28;20517;-64
2022/04/14 06:44:00;;;;;;;28.13;18.38;;;;;;;12.03;74.11;100452.78;5134540;27;20520;-66
2022/04/14 06:46:44;;;;;;;24.40;17.33;;;;;;;12.05;74.42;100446.75;5119020;28;20535;-64
2022/04/14 06:49:29;;;;;;;26.27;17.92;;;;;;;12.05;74.14;100457.13;5118897;28;20042;-65
2022/04/14 06:52:12;;;;;;;22.20;16.42;;;;;;;12.06;74.33;100451.09;5119025;28;20046;-65
2022/04/14 06:54:56;;;;;;;26.45;15.88;;;;;;;12.07;74.12;100456.28;5133969;28;20039;-65
2022/04/14 06:57:40;;;;;;;23.30;15.20;;;;;;;12.07;74.16;100464.09;5134035;28;20045;-65
2022/04/14 07:00:25;;;;;;;22.77;15.73;;;;;;;12.07;74.11;100458.91;5134173;27;20046;-65
2022/04/14 07:03:09;;;;;;;;;;;;;;;12.06;73.97;100459.78;5138508;27;20054;-64
2022/04/14 07:05:56;;;;;;;21.48;12.82;;;;;;;12.07;74.67;100452.84;5137601;27;19941;-64
2022/04/14 07:08:40;;;;;;;24.67;14.95;;;;;;;12.08;74.15;100458.03;5137568;27;20088;-64
2022/04/14 07:11:24;;;;;;;20.42;13.77;;;;;;;12.08;74.13;100449.38;5137835;27;20398;-64
2022/04/14 07:14:07;;;;;;;18.10;13.48;;;;;;;12.06;73.94;100451.97;5137549;27;20050;-64
2022/04/14 07:16:51;;;;;;;22.77;14.65;;;;;;;12.07;74.25;100455.44;5122158;27;20085;-64
2022/04/14 07:19:35;;;;;;;25.10;16.17;;;;;;;12.08;74.48;100467.56;5137680;27;20073;-64
2022/04/14 07:22:19;;;;;;;35.15;20.08;;;;;;;12.09;74.34;100461.53;5137750;27;20082;-64
2022/04/14 07:25:03;;;;;;;26.92;17.65;;;;;;;12.09;74.01;100465.00;5137585;27;20096;-65
2022/04/14 07:27:47;;;;;;;;;;;;;;;12.09;74.45;100454.59;5121935;27;20050;-64
2022/04/14 07:30:32;;;;;;;28.20;17.55;;;;;;;12.10;74.27;100464.16;5137583;27;19918;-64
2022/04/14 07:33:15;;;;;;;;;;;;;;;12.12;74.25;100462.44;5122707;27;20065;-64
2022/04/14 07:36:00;;;;;;;28.90;17.98;;;;;;;12.11;74.24;100465.03;5136905;27;19923;-65
2022/04/14 07:38:44;;;;;;;32.65;19.92;;;;;;;12.12;74.23;100461.59;5137115;27;20398;-65
2022/04/14 07:41:28;;;;;;;;;;;;;;;12.11;74.31;100460.69;5137590;27;20103;-64
2022/04/14 07:44:12;;;;;;;27.35;17.83;;;;;;;12.13;74.35;100468.53;5151016;27;19942;-64
2022/04/14 07:46:56;;;;;;;30.15;20.35;;;;;;;12.15;74.25;100470.31;5121283;27;20509;-65
2022/04/14 07:49:40;;;;;;;25.13;19.90;;;;;;;12.15;74.24;100472.91;5137130;27;20118;-65
2022/04/14 07:52:24;;;;;;;38.72;25.35;;;;;;;12.15;74.51;100479.81;5136634;27;20505;-64
2022/04/14 07:55:08;;;;;;;32.03;21.02;;;;;;;12.17;74.54;100475.50;5136985;27;20577;-65
2022/04/14 07:57:54;;;;;;;34.83;22.55;;;;;;;12.17;74.19;100473.81;5121494;27;20054;-64
2022/04/14 08:00:39;;;;;;;34.95;22.95;;;;;;;12.18;74.45;100469.47;5121191;27;20520;-64
2022/04/14 08:03:23;;;;;;;35.85;24.10;;;;;;;12.20;74.41;100464.31;5121112;27;20046;-65
2022/04/14 08:06:08;;;;;;;43.17;25.55;;;;;;;12.22;74.72;100473.00;5136825;27;20050;-65
2022/04/14 08:08:52;;;;;;;41.75;25.75;;;;;;;12.20;74.53;100474.72;5121222;27;20520;-64
2022/04/14 08:11:38;;;;;;;39.45;27.63;;;;;;;12.23;74.47;100479.94;5120962;27;20065;-65
2022/04/14 08:14:22;;;;;;;42.83;27.33;;;;;;;12.24;74.68;100482.56;5107823;28;20078;-64
2022/04/14 08:17:06;;;;;;;43.10;27.33;;;;;;;12.24;74.67;100492.97;5095559;28;20521;-64
2022/04/14 08:19:50;;;;;;;37.40;25.35;;;;;;;12.26;74.74;100487.78;5095918;28;20051;-65
2022/04/14 08:22:46;;;;;;;36.38;24.77;;;;;;;12.24;74.58;100490.38;5094551;28;20059;-64
2022/04/14 08:25:32;;;;;;;42.38;27.75;;;;;;;12.25;74.46;100494.72;5095404;28;20055;-64
2022/04/14 08:28:16;;;;;;;44.28;27.17;;;;;;;12.27;74.54;100493.03;5094770;28;20046;-64
2022/04/14 08:31:02;;;;;;;53.00;30.27;;;;;;;12.29;74.62;100495.63;5095609;28;20127;-64
2022/04/14 08:33:45;;;;;;;47.60;30.25;;;;;;;12.28;74.83;100484.38;5094532;28;20047;-64
2022/04/14 08:36:29;;;;;;;48.00;30.85;;;;;;;12.32;74.75;100491.34;5094746;28;20051;-64
2022/04/14 08:39:15;;;;;;;46.65;32.70;;;;;;;12.31;74.68;100496.53;5094697;28;20509;-65
2022/04/14 08:42:13;;;;;;;48.58;29.90;;;;;;;12.31;74.53;100492.19;5095247;28;20053;-65
2022/04/14 08:45:04;;;;;;;47.63;32.28;;;;;;;12.33;74.66;100498.28;5093974;28;20051;-65
2022/04/14 08:47:51;;;;;;;41.03;28.85;;;;;;;12.36;74.56;100489.69;5095072;28;20458;-65
2022/04/14 08:50:34;;;;;;;47.92;32.05;;;;;;;12.39;74.91;100494.06;5095099;28;20046;-64
2022/04/14 08:53:18;;;;;;;44.20;30.45;;;;;;;12.40;74.78;100491.47;5094924;28;20043;-64
2022/04/14 08:56:05;;;;;;;42.85;29.77;;;;;;;12.42;74.72;100494.13;5095240;28;20173;-64
2022/04/14 08:58:53;;;;;;;46.08;31.45;;;;;;;12.42;74.41;100494.97;5094027;28;20051;-65
2022/04/14 09:01:38;;;;;;;51.88;33.70;;;;;;;12.45;75.03;100495.03;5093728;28;20563;-65
2022/04/14 09:04:22;;;;;;;51.65;33.53;;;;;;;12.47;74.71;100484.63;5093105;28;20522;-65
2022/04/14 09:07:06;;;;;;;50.65;36.35;;;;;;;12.48;74.87;100483.78;5093652;28;20054;-65
2022/04/14 09:09:50;;;;;;;;;;;;;;;12.49;74.39;100494.22;5094096;28;20094;-64
2022/04/14 09:12:37;;;;;;;51.17;33.17;;;;;;;12.50;74.72;100487.28;5093810;28;19962;-65
2022/04/14 09:15:21;;;;;;;48.45;35.17;;;;;;;12.52;74.66;100495.13;5093183;28;20062;-65
2022/04/14 09:18:07;;;;;;;50.20;33.50;;;;;;;12.54;74.81;100490.81;5094011;28;20407;-65
2022/04/14 09:21:03;;;;;;;49.00;33.85;;;;;;;12.57;74.31;100490.84;5094673;28;20092;-65
2022/04/14 09:23:54;;;;;;;56.50;37.47;;;;;;;12.59;74.54;100484.84;5092758;28;20048;-65
2022/04/14 09:26:39;;;;;;;53.10;35.17;;;;;;;12.62;74.47;100497.00;5093870;28;20164;-65
2022/04/14 09:29:23;;;;;;;50.20;33.97;;;;;;;12.65;74.62;100491.84;5094471;28;20105;-65
2022/04/14 09:32:08;;;;;;;49.40;37.45;;;;;;;12.64;74.66;100477.97;5093488;28;20427;-64
2022/04/14 09:34:52;;;;;;;55.20;37.42;;;;;;;12.68;74.70;100480.63;5094186;28;20039;-64
2022/04/14 09:37:36;;;;;;;52.72;36.67;;;;;;;12.68;74.32;100472.81;5093865;28;20043;-65
2022/04/14 09:40:21;;;;;;;51.38;34.42;;;;;;;12.67;74.54;100473.66;5094228;28;20047;-65
2022/04/14 09:43:06;;;;;;;49.22;35.17;;;;;;;12.68;74.19;100478.03;5092891;28;20079;-65
2022/04/14 09:45:49;;;;;;;;;;;;;;;12.67;74.64;100484.97;5093192;28;20078;-64
2022/04/14 09:48:33;;;;;;;47.90;33.88;;;;;;;12.67;74.72;100479.75;5093933;28;20425;-65
2022/04/14 09:51:25;;;;;;;50.30;36.20;;;;;;;12.67;74.40;100473.66;5093941;28;20059;-65
2022/04/14 09:54:15;;;;;;;50.97;36.03;;;;;;;12.69;74.28;100474.56;5093322;28;20050;-65
2022/04/14 09:56:59;;;;;;;51.13;36.67;;;;;;;12.70;74.48;100473.72;5093953;28;20071;-65
2022/04/14 09:59:43;;;;;;;51.47;38.03;;;;;;;12.71;74.46;100473.72;5093815;28;20047;-65
2022/04/14 10:02:27;;;;;;;49.20;35.13;;;;;;;12.72;74.65;100459.88;5093723;28;20050;-64
2022/04/14 10:05:11;;;;;;;48.10;34.78;;;;;;;12.74;74.29;100460.78;5093161;28;20090;-65
2022/04/14 10:07:58;;;;;;;51.90;35.90;;;;;;;12.77;74.62;100452.13;5093120;28;20058;-64
2022/04/14 10:10:45;;;;;;;47.25;34.13;;;;;;;12.79;74.18;100446.13;5092454;28;20528;-65
2022/04/14 10:13:34;;;;;;;46.15;34.78;;;;;;;12.80;74.49;100433.97;5093928;28;20047;-65
2022/04/14 10:16:21;;;;;;;45.47;33.95;;;;;;;12.82;74.15;100432.25;5118990;28;20119;-65
2022/04/14 10:19:08;;;;;;;46.65;34.17;;;;;;;12.85;74.21;100434.91;5119257;28;20054;-65
2022/04/14 10:21:54;;;;;;;47.92;32.65;;;;;;;12.87;74.51;100434.91;5118938;28;20454;-64
2022/04/14 10:24:39;;;;;;;47.63;33.70;;;;;;;12.90;74.36;100438.47;5119160;28;20070;-65
2022/04/14 10:27:25;;;;;;;47.03;33.13;;;;;;;12.91;73.95;100445.41;5118818;28;20050;-65
2022/04/14 10:30:09;;;;;;;45.53;33.17;;;;;;;12.93;74.06;100437.63;5135122;28;20043;-65
2022/04/14 10:32:55;;;;;;;43.92;30.83;;;;;;;12.94;74.19;100437.63;5118669;28;20058;-64
2022/04/14 10:35:40;;;;;;;45.58;32.05;;;;;;;12.95;74.40;100435.91;5118865;27;20037;-65
2022/04/14 10:38:37;;;;;;;41.17;31.27;;;;;;;12.97;74.08;100436.81;5122627;27;20122;-65
2022/04/14 10:41:26;;;;;;;42.50;31.35;;;;;;;12.98;74.28;100437.66;5138446;27;20095;-65
2022/04/14 10:44:10;;;;;;;48.72;33.65;;;;;;;12.96;73.99;100432.44;5123111;27;20046;-65
2022/04/14 10:46:54;;;;;;;;;;;;;;;12.94;74.15;100426.34;5123712;27;20078;-65
2022/04/14 10:49:41;;;;;;;42.53;30.35;;;;;;;12.95;74.45;100423.75;5138411;27;19919;-65
2022/04/14 10:52:28;;;;;;;46.08;33.88;;;;;;;12.95;74.16;100412.50;5122305;27;20074;-65
2022/04/14 10:55:35;;;;;;;42.78;32.50;;;;;;;12.90;73.94;100422.84;5122135;27;20515;-65
2022/04/14 10:58:28;;;;;;;44.85;31.83;;;;;;;12.90;73.97;100421.97;5122854;27;20550;-64
2022/04/14 11:01:12;;;;;;;42.13;31.50;;;;;;;12.92;74.35;100428.91;5122452;27;20413;-66
2022/04/14 11:03:57;;;;;;;42.60;31.85;;;;;;;12.94;73.94;100426.34;5122825;27;20047;-65
2022/04/14 11:06:41;;;;;;;;;;;;;;;12.95;74.38;100436.75;5138281;27;20104;-65
2022/04/14 11:09:41;;;;;;;40.88;29.10;;;;;;;12.99;74.05;100440.31;5137388;27;19958;-64
2022/04/14 11:12:40;;;;;;;42.72;29.77;;;;;;;13.01;74.19;100443.78;5122202;27;20046;-65
2022/04/14 11:15:32;;;;;;;39.08;31.02;;;;;;;13.05;74.14;100457.72;5137563;27;20053;-65
2022/04/14 11:18:16;;;;;;;45.45;31.30;;;;;;;13.07;73.83;100456.00;5137510;27;20047;-65
2022/04/14 11:21:00;;;;;;;;;;;;;;;13.07;74.01;100456.88;5138203;27;20054;-65
2022/04/14 11:23:44;;;;;;;39.13;29.27;;;;;;;13.09;74.08;100469.88;5137353;27;19918;-64
2022/04/14 11:26:35;;;;;;;37.65;29.10;;;;;;;13.12;73.84;100467.31;5137740;27;20058;-65
2022/04/14 11:29:31;;;;;;;41.60;29.48;;;;;;;13.14;74.01;100472.56;5122238;27;20042;-65
2022/04/14 11:32:34;;;;;;;39.67;28.52;;;;;;;13.15;73.96;100463.91;5122328;27;20452;-65
2022/04/14 11:35:18;;;;;;;39.20;27.25;;;;;;;13.18;73.94;100470.00;5122132;27;20092;-65
2022/04/14 11:38:03;;;;;;;35.63;26.33;;;;;;;13.19;73.41;100471.75;5137630;27;20041;-65
2022/04/14 11:40:54;;;;;;;34.75;26.90;;;;;;;13.20;73.78;100464.81;5137576;27;20042;-64
2022/04/14 11:43:39;;;;;;;37.05;26.40;;;;;;;13.19;74.18;100465.66;5121818;27;20463;-65
2022/04/14 11:46:23;;;;;;;33.55;26.25;;;;;;;13.18;73.98;100467.41;5136431;27;20570;-64
2022/04/14 11:49:09;;;;;;;;;;;;;;;13.19;73.79;100465.66;5121638;27;20050;-65
2022/04/14 11:51:55;;;;;;;29.10;22.23;;;;;;;13.16;73.57;100466.53;5121693;27;19918;-65
2022/04/14 11:54:39;;;;;;;34.25;23.40;;;;;;;13.17;73.85;100462.16;5121635;27;20401;-64
2022/04/14 11:57:26;;;;;;;29.38;23.73;;;;;;;13.17;73.57;100455.25;5137255;27;20631;-65
2022/04/14 12:00:11;;;;;;;27.88;23.05;;;;;;;13.17;73.69;100446.56;5121714;27;20081;-65
2022/04/14 12:02:57;;;;;;;;;;;;;;;13.15;73.79;100456.97;5136955;27;20421;-65
2022/04/14 12:05:51;;;;;;;26.80;19.60;;;;;;;13.10;73.81;100456.03;5150825;27;19963;-65
2022/04/14 12:08:36;;;;;;;25.88;20.92;;;;;;;13.09;73.34;100456.88;5121411;27;20046;-64
2022/04/14 12:11:21;;;;;;;25.23;19.48;;;;;;;13.09;73.71;100455.16;5121334;27;20397;-65
2022/04/14 12:14:05;;;;;;;24.02;18.98;;;;;;;13.09;73.50;100459.47;5120693;27;20053;-64
2022/04/14 12:16:51;;;;;;;23.55;18.48;;;;;;;13.10;73.49;100458.63;5121629;27;20050;-65
2022/04/14 12:19:40;;;;;;;22.38;17.15;;;;;;;13.11;73.47;100455.16;5121052;27;20523;-65
2022/04/14 12:22:28;;;;;;;23.52;17.52;;;;;;;13.13;73.46;100456.06;5121147;27;20070;-66
2022/04/14 12:25:12;;;;;;;22.85;17.23;;;;;;;13.13;73.60;100455.22;5120999;27;20061;-64
2022/04/14 12:27:56;;;;;;;26.50;18.13;;;;;;;13.14;73.68;100463.03;5136266;27;20065;-65
2022/04/14 12:30:43;;;;;;;;;;;;;;;13.12;73.56;100450.84;5136731;27;20086;-65
2022/04/14 12:33:28;;;;;;;23.70;16.52;;;;;;;13.13;73.64;100452.59;5136093;27;19922;-64
2022/04/14 12:36:12;;;;;;;20.92;15.75;;;;;;;13.16;73.31;100452.63;5120821;27;20042;-65
2022/04/14 12:38:56;;;;;;;20.48;15.07;;;;;;;13.16;73.73;100455.22;5136317;27;20135;-64
2022/04/14 12:41:40;;;;;;;24.27;15.88;;;;;;;13.19;73.61;100450.06;5135864;27;20079;-65